Time,TemperatureF,DewpointF,PressureIn,WindDirection,WindDirectionDegrees,WindSpeedMPH,WindSpeedGustMPH,Humidity,HourlyPrecipIn,Conditions,Clouds,dailyrainin,SoftwareType,DateUTC
2013-01-27 00:00:00,27.2,26.0,29.72,ENE,78,0.0,0.0,95,0.00,CLR,,0.11,WeatherDisplay:10.37,2013-01-27 05:00:00,
2013-01-27 00:03:00,27.2,26.0,29.72,ENE,78,0.0,0.0,95,0.00,RA,,0.00,WeatherDisplay:10.37,2013-01-27 05:03:00,
2013-01-27 00:08:00,27.0,25.8,29.72,ENE,78,0.0,0.0,95,0.00,RA,,0.00,WeatherDisplay:10.37,2013-01-27 05:08:00,
2013-01-27 00:13:00,26.7,25.5,29.73,ENE,78,0.0,0.0,95,0.00,CLR,,0.00,WeatherDisplay:10.37,2013-01-27 05:13:00,
2013-01-27 00:18:00,26.4,25.2,29.73,ENE,78,0.0,0.0,95,0.00,CLR,,0.00,WeatherDisplay:10.37,2013-01-27 05:18:00,
2013-01-27 00:23:00,26.1,24.9,29.73,ENE,78,0.0,0.0,95,0.00,CLR,,0.00,WeatherDisplay:10.37,2013-01-27 05:23:00,
2013-01-27 00:28:00,26.0,24.8,29.72,ENE,78,0.0,0.0,95,0.00,CLR,,0.00,WeatherDisplay:10.37,2013-01-27 05:28:00,
2013-01-27 00:33:00,26.0,24.8,29.72,ENE,78,0.0,0.0,95,0.00,CLR,,0.00,WeatherDisplay:10.37,2013-01-27 05:33:00,
2013-01-27 00:38:00,25.8,24.6,29.72,ENE,78,0.0,0.0,95,0.00,CLR,,0.00,WeatherDisplay:10.37,2013-01-27 05:38:00,
2013-01-27 00:43:00,25.7,24.5,29.74,ENE,78,0.0,0.0,95,0.00,CLR,,0.00,WeatherDisplay:10.37,2013-01-27 05:43:00,
2013-01-27 00:48:00,25.6,24.4,29.74,ENE,78,0.0,0.0,95,0.00,CLR,,0.00,WeatherDisplay:10.37,2013-01-27 05:48:00,
2013-01-27 00:53:00,25.6,24.4,29.74,ENE,78,0.0,0.0,95,0.00,CLR,,0.00,WeatherDisplay:10.37,2013-01-27 05:53:00,
2013-01-27 00:58:00,25.4,24.2,29.74,ENE,78,0.0,0.0,95,0.00,CLR,,0.00,WeatherDisplay:10.37,2013-01-27 05:58:00,
2013-01-27 01:03:00,25.4,24.2,29.74,ENE,78,0.0,0.0,95,0.00,CLR,,0.00,WeatherDisplay:10.37,2013-01-27 06:03:00,
2013-01-27 01:08:00,25.3,24.1,29.74,ENE,78,0.0,0.0,95,0.00,CLR,,0.00,WeatherDisplay:10.37,2013-01-27 06:08:00,
2013-01-27 01:13:00,25.3,24.1,29.74,ENE,78,0.0,0.0,95,0.00,CLR,,0.00,WeatherDisplay:10.37,2013-01-27 06:13:00,
2013-01-27 01:18:00,25.3,24.1,29.74,ENE,78,0.0,0.0,95,0.00,CLR,,0.00,WeatherDisplay:10.37,2013-01-27 06:18:00,
2013-01-27 01:23:00,25.1,23.9,29.74,ENE,78,0.0,0.0,95,0.00,CLR,,0.00,WeatherDisplay:10.37,2013-01-27 06:23:00,
2013-01-27 01:28:00,25.0,23.8,29.75,ENE,78,0.0,0.0,95,0.00,CLR,,0.00,WeatherDisplay:10.37,2013-01-27 06:28:00,
2013-01-27 01:33:00,25.0,23.8,29.75,ENE,78,0.0,0.0,95,0.00,CLR,,0.00,WeatherDisplay:10.37,2013-01-27 06:33:00,
2013-01-27 01:38:00,24.8,23.6,29.75,ENE,78,0.0,0.0,95,0.00,CLR,,0.00,WeatherDisplay:10.37,2013-01-27 06:38:00,
2013-01-27 01:43:00,25.1,23.9,29.75,ENE,78,0.0,0.0,95,0.00,CLR,,0.00,WeatherDisplay:10.37,2013-01-27 06:43:00,
2013-01-27 01:48:00,25.3,24.3,29.75,ENE,78,0.0,0.0,96,0.00,CLR,,0.00,WeatherDisplay:10.37,2013-01-27 06:48:00,
2013-01-27 01:53:00,25.4,24.4,29.75,ENE,78,0.0,0.0,96,0.00,CLR,,0.00,WeatherDisplay:10.37,2013-01-27 06:53:00,
2013-01-27 01:58:00,25.6,24.6,29.76,ENE,78,0.0,0.0,96,0.00,CLR,,0.00,WeatherDisplay:10.37,2013-01-27 06:58:00,
2013-01-27 02:03:00,25.7,24.7,29.76,ENE,78,0.0,0.0,96,0.00,CLR,,0.00,WeatherDisplay:10.37,2013-01-27 07:03:00,
2013-01-27 02:08:00,25.8,24.8,29.76,ENE,78,0.0,0.0,96,0.00,CLR,,0.00,WeatherDisplay:10.37,2013-01-27 07:08:00,
2013-01-27 02:13:00,25.8,24.8,29.76,ENE,78,0.0,0.0,96,0.00,CLR,,0.00,WeatherDisplay:10.37,2013-01-27 07:13:00,
2013-01-27 02:18:00,25.8,24.8,29.76,ENE,78,0.0,0.0,96,0.00,CLR,,0.00,WeatherDisplay:10.37,2013-01-27 07:18:00,
2013-01-27 02:23:00,25.8,24.8,29.76,ENE,76,0.0,0.0,96,0.00,CLR,,0.00,WeatherDisplay:10.37,2013-01-27 07:23:00,
2013-01-27 02:28:00,26.0,25.0,29.76,ENE,76,0.0,0.0,96,0.00,CLR,,0.00,WeatherDisplay:10.37,2013-01-27 07:28:00,
2013-01-27 02:33:00,26.3,25.3,29.76,ENE,76,0.0,0.0,96,0.00,CLR,,0.00,WeatherDisplay:10.37,2013-01-27 07:33:00,
2013-01-27 02:38:00,26.4,25.4,29.76,NNE,27,3.5,3.5,96,0.00,CLR,,0.00,WeatherDisplay:10.37,2013-01-27 07:38:00,
2013-01-27 02:43:00,26.4,25.4,29.77,NNE,27,0.0,0.0,96,0.00,CLR,,0.00,WeatherDisplay:10.37,2013-01-27 07:43:00,
2013-01-27 02:48:00,26.4,25.4,29.77,NNE,25,0.0,0.0,96,0.00,CLR,,0.00,WeatherDisplay:10.37,2013-01-27 07:48:00,
2013-01-27 02:53:00,26.4,25.4,29.77,NNE,25,0.0,0.0,96,0.00,CLR,,0.00,WeatherDisplay:10.37,2013-01-27 07:53:00,
2013-01-27 02:58:00,26.4,25.4,29.77,NNE,25,0.0,0.0,96,0.00,CLR,,0.00,WeatherDisplay:10.37,2013-01-27 07:58:00,
2013-01-27 03:03:00,26.1,24.9,29.77,NNE,25,0.0,0.0,95,0.00,CLR,,0.00,WeatherDisplay:10.37,2013-01-27 08:03:00,
2013-01-27 03:08:00,25.6,24.4,29.77,NNE,25,0.0,0.0,95,0.00,CLR,,0.00,WeatherDisplay:10.37,2013-01-27 08:08:00,
2013-01-27 03:13:00,24.5,23.0,29.77,NNE,25,0.0,0.0,94,0.00,CLR,,0.00,WeatherDisplay:10.37,2013-01-27 08:13:00,
2013-01-27 03:18:00,23.8,22.3,29.77,NNE,25,0.0,0.0,94,0.00,CLR,,0.00,WeatherDisplay:10.37,2013-01-27 08:18:00,
2013-01-27 03:23:00,23.6,22.1,29.77,NNE,25,0.0,0.0,94,0.00,CLR,,0.00,WeatherDisplay:10.37,2013-01-27 08:23:00,
2013-01-27 03:28:00,23.5,22.0,29.76,NNE,28,0.0,0.0,94,0.00,CLR,,0.00,WeatherDisplay:10.37,2013-01-27 08:28:00,
2013-01-27 03:33:00,23.2,22.0,29.76,NNE,28,0.0,0.0,95,0.00,CLR,,0.00,WeatherDisplay:10.37,2013-01-27 08:33:00,
2013-01-27 03:38:00,23.2,22.0,29.76,NNE,28,0.0,0.0,95,0.00,CLR,,0.00,WeatherDisplay:10.37,2013-01-27 08:38:00,
2013-01-27 03:43:00,23.2,22.0,29.77,NE,34,1.1,1.1,95,0.00,CLR,,0.00,WeatherDisplay:10.37,2013-01-27 08:43:00,
2013-01-27 03:48:00,23.2,22.0,29.77,NE,34,0.0,0.0,95,0.00,CLR,,0.00,WeatherDisplay:10.37,2013-01-27 08:48:00,
2013-01-27 03:53:00,23.2,22.0,29.77,NE,34,0.0,0.0,95,0.00,CLR,,0.00,WeatherDisplay:10.37,2013-01-27 08:53:00,
2013-01-27 03:58:00,23.3,22.1,29.77,NE,34,0.0,0.0,95,0.00,CLR,,0.00,WeatherDisplay:10.37,2013-01-27 08:58:00,
2013-01-27 04:03:00,23.3,21.8,29.77,NE,34,0.0,0.0,94,0.00,CLR,,0.00,WeatherDisplay:10.37,2013-01-27 09:03:00,
2013-01-27 04:08:00,23.5,22.3,29.77,NE,34,0.0,0.0,95,0.00,CLR,,0.00,WeatherDisplay:10.37,2013-01-27 09:08:00,
2013-01-27 04:13:00,23.5,22.0,29.78,NE,34,0.0,0.0,94,0.00,CLR,,0.00,WeatherDisplay:10.37,2013-01-27 09:13:00,
2013-01-27 04:19:00,23.3,21.8,29.78,NE,34,0.0,0.0,94,0.00,CLR,,0.00,WeatherDisplay:10.37,2013-01-27 09:19:00,
2013-01-27 04:24:00,23.3,21.8,29.78,NE,34,0.0,0.0,94,0.00,CLR,,0.00,WeatherDisplay:10.37,2013-01-27 09:24:00,
2013-01-27 04:29:00,23.3,21.8,29.78,NE,34,0.0,0.0,94,0.00,CLR,,0.00,WeatherDisplay:10.37,2013-01-27 09:29:00,
2013-01-27 04:34:00,23.3,21.8,29.78,NE,34,0.0,0.0,94,0.00,CLR,,0.00,WeatherDisplay:10.37,2013-01-27 09:34:00,
2013-01-27 04:39:00,23.3,21.8,29.78,NE,34,0.0,0.0,94,0.00,CLR,,0.00,WeatherDisplay:10.37,2013-01-27 09:39:00,
2013-01-27 04:44:00,23.3,21.8,29.79,NE,34,0.0,0.0,94,0.00,CLR,,0.00,WeatherDisplay:10.37,2013-01-27 09:44:00,
2013-01-27 04:49:00,23.2,21.7,29.79,NE,34,0.0,0.0,94,0.00,CLR,,0.00,WeatherDisplay:10.37,2013-01-27 09:49:00,
2013-01-27 04:54:00,23.2,21.7,29.79,NE,34,0.0,0.0,94,0.00,CLR,,0.00,WeatherDisplay:10.37,2013-01-27 09:54:00,
2013-01-27 04:59:00,23.2,21.7,29.80,NE,34,0.0,0.0,94,0.00,CLR,,0.00,WeatherDisplay:10.37,2013-01-27 09:59:00,
2013-01-27 05:04:00,23.2,21.7,29.80,NE,34,0.0,0.0,94,0.00,CLR,,0.00,WeatherDisplay:10.37,2013-01-27 10:04:00,
2013-01-27 05:09:00,23.2,21.7,29.80,NE,34,0.0,0.0,94,0.00,CLR,,0.00,WeatherDisplay:10.37,2013-01-27 10:09:00,
2013-01-27 05:14:00,23.2,21.7,29.79,NE,34,0.0,0.0,94,0.00,CLR,,0.00,WeatherDisplay:10.37,2013-01-27 10:14:00,
2013-01-27 05:19:00,23.2,21.7,29.79,NE,34,0.0,0.0,94,0.00,CLR,,0.00,WeatherDisplay:10.37,2013-01-27 10:19:00,
2013-01-27 05:24:00,23.0,21.5,29.79,NE,34,0.0,0.0,94,0.00,CLR,,0.00,WeatherDisplay:10.37,2013-01-27 10:24:00,
2013-01-27 05:29:00,23.0,21.5,29.79,NE,34,0.0,0.0,94,0.00,CLR,,0.00,WeatherDisplay:10.37,2013-01-27 10:29:00,
2013-01-27 05:34:00,23.0,21.5,29.79,NE,34,0.0,0.0,94,0.00,CLR,,0.00,WeatherDisplay:10.37,2013-01-27 10:34:00,
2013-01-27 05:39:00,23.0,21.5,29.79,NE,34,0.0,0.0,94,0.00,CLR,,0.00,WeatherDisplay:10.37,2013-01-27 10:39:00,
2013-01-27 05:44:00,23.0,21.5,29.79,NE,34,0.0,0.0,94,0.00,CLR,,0.00,WeatherDisplay:10.37,2013-01-27 10:44:00,
2013-01-27 05:49:00,23.0,21.5,29.79,NE,34,0.0,0.0,94,0.00,CLR,,0.00,WeatherDisplay:10.37,2013-01-27 10:49:00,
2013-01-27 05:54:00,23.0,21.5,29.79,NE,34,0.0,0.0,94,0.00,CLR,,0.00,WeatherDisplay:10.37,2013-01-27 10:54:00,
2013-01-27 05:59:00,23.0,21.5,29.80,NE,34,0.0,0.0,94,0.00,CLR,,0.00,WeatherDisplay:10.37,2013-01-27 10:59:00,
2013-01-27 06:04:00,23.0,21.5,29.80,NE,34,1.0,0.0,94,0.00,CLR,,0.00,WeatherDisplay:10.37,2013-01-27 11:04:00,
2013-01-27 06:09:00,23.0,21.5,29.80,NE,34,0.0,0.0,94,0.00,CLR,,0.00,WeatherDisplay:10.37,2013-01-27 11:09:00,
2013-01-27 06:14:00,23.0,21.5,29.81,NE,34,0.0,0.0,94,0.00,CLR,,0.00,WeatherDisplay:10.37,2013-01-27 11:14:00,
2013-01-27 06:19:00,23.0,21.5,29.81,NE,34,0.0,0.0,94,0.00,CLR,,0.00,WeatherDisplay:10.37,2013-01-27 11:19:00,
2013-01-27 06:24:00,23.0,21.5,29.81,NE,34,0.0,0.0,94,0.00,CLR,,0.00,WeatherDisplay:10.37,2013-01-27 11:24:00,
2013-01-27 06:29:00,23.0,21.5,29.81,NE,34,0.0,0.0,94,0.00,CLR,,0.00,WeatherDisplay:10.37,2013-01-27 11:29:00,
2013-01-27 06:34:00,23.0,21.5,29.81,NE,34,0.0,0.0,94,0.00,CLR,,0.00,WeatherDisplay:10.37,2013-01-27 11:34:00,
2013-01-27 06:39:00,23.2,21.7,29.81,NE,34,0.0,0.0,94,0.00,CLR,,0.00,WeatherDisplay:10.37,2013-01-27 11:39:00,
2013-01-27 06:44:00,23.2,21.7,29.82,NE,34,0.0,0.0,94,0.00,CLR,,0.00,WeatherDisplay:10.37,2013-01-27 11:44:00,
2013-01-27 06:49:00,23.0,21.5,29.82,NE,34,0.0,0.0,94,0.00,CLR,,0.00,WeatherDisplay:10.37,2013-01-27 11:49:00,
2013-01-27 06:54:00,23.2,21.7,29.82,NE,34,0.0,0.0,94,0.00,CLR,,0.00,WeatherDisplay:10.37,2013-01-27 11:54:00,
2013-01-27 06:59:00,23.2,21.7,29.82,NE,34,0.0,0.0,94,0.00,CLR,,0.00,WeatherDisplay:10.37,2013-01-27 11:59:00,
2013-01-27 07:04:00,23.2,21.7,29.82,NE,34,0.0,0.0,94,0.00,CLR,,0.00,WeatherDisplay:10.37,2013-01-27 12:04:00,
2013-01-27 07:09:00,23.2,21.7,29.82,NE,34,0.0,0.0,94,0.00,CLR,,0.00,WeatherDisplay:10.37,2013-01-27 12:09:00,
2013-01-27 07:14:00,23.0,21.5,29.83,NE,34,0.0,0.0,94,0.00,CLR,,0.00,WeatherDisplay:10.37,2013-01-27 12:14:00,
2013-01-27 07:19:00,22.9,21.4,29.83,NE,38,0.0,0.0,94,0.00,CLR,,0.00,WeatherDisplay:10.37,2013-01-27 12:19:00,
2013-01-27 07:24:00,22.9,21.4,29.83,NE,38,0.0,0.0,94,0.00,CLR,,0.00,WeatherDisplay:10.37,2013-01-27 12:24:00,
2013-01-27 07:29:00,22.9,21.2,29.84,NE,38,0.0,0.0,93,0.00,CLR,,0.00,WeatherDisplay:10.37,2013-01-27 12:29:00,
2013-01-27 07:34:00,22.9,21.2,29.84,NE,37,0.0,0.0,93,0.00,CLR,,0.00,WeatherDisplay:10.37,2013-01-27 12:34:00,
2013-01-27 07:39:00,22.9,21.2,29.84,NE,38,0.0,0.0,93,0.00,CLR,,0.00,WeatherDisplay:10.37,2013-01-27 12:39:00,
2013-01-27 07:44:00,22.9,21.2,29.86,NE,37,0.0,0.0,93,0.00,CLR,,0.00,WeatherDisplay:10.37,2013-01-27 12:44:00,
2013-01-27 07:49:00,23.0,21.3,29.86,NE,37,0.0,0.0,93,0.00,CLR,,0.00,WeatherDisplay:10.37,2013-01-27 12:49:00,
2013-01-27 07:54:00,23.0,21.5,29.86,NE,37,0.0,0.0,94,0.00,CLR,,0.00,WeatherDisplay:10.37,2013-01-27 12:54:00,
2013-01-27 07:59:00,23.2,21.7,29.86,NE,37,0.0,0.0,94,0.00,CLR,,0.00,WeatherDisplay:10.37,2013-01-27 12:59:00,
2013-01-27 08:04:00,23.3,21.8,29.86,NE,38,0.0,0.0,94,0.00,CLR,,0.00,WeatherDisplay:10.37,2013-01-27 13:04:00,
2013-01-27 08:09:00,23.3,21.8,29.86,NE,38,0.0,0.0,94,0.00,CLR,,0.00,WeatherDisplay:10.37,2013-01-27 13:09:00,
2013-01-27 08:14:00,23.5,22.0,29.88,NE,38,0.0,0.0,94,0.00,CLR,,0.00,WeatherDisplay:10.37,2013-01-27 13:14:00,
2013-01-27 08:19:00,23.5,22.0,29.88,NE,37,0.0,0.0,94,0.00,CLR,,0.00,WeatherDisplay:10.37,2013-01-27 13:19:00,
2013-01-27 08:24:00,23.6,22.1,29.88,NE,37,0.0,0.0,94,0.00,CLR,,0.00,WeatherDisplay:10.37,2013-01-27 13:24:00,
2013-01-27 08:29:00,23.9,22.4,29.88,NE,38,0.0,0.0,94,0.00,CLR,,0.00,WeatherDisplay:10.37,2013-01-27 13:29:00,
2013-01-27 08:34:00,23.9,22.4,29.88,NE,37,0.0,0.0,94,0.00,CLR,,0.00,WeatherDisplay:10.37,2013-01-27 13:34:00,
2013-01-27 08:39:00,23.9,22.4,29.88,NE,37,0.0,0.0,94,0.00,CLR,,0.00,WeatherDisplay:10.37,2013-01-27 13:39:00,
2013-01-27 08:44:00,23.9,22.4,29.89,NE,37,0.0,0.0,94,0.00,CLR,,0.00,WeatherDisplay:10.37,2013-01-27 13:44:00,
2013-01-27 08:49:00,24.1,22.6,29.89,NE,38,0.0,0.0,94,0.00,CLR,,0.00,WeatherDisplay:10.37,2013-01-27 13:49:00,
2013-01-27 08:54:00,24.2,22.5,29.89,NE,37,0.0,0.0,93,0.00,CLR,,0.00,WeatherDisplay:10.37,2013-01-27 13:54:00,
2013-01-27 08:59:00,24.5,23.0,29.90,NE,37,0.0,0.0,94,0.00,CLR,,0.00,WeatherDisplay:10.37,2013-01-27 13:59:00,
2013-01-27 09:04:00,24.8,23.3,29.90,NE,38,0.0,0.0,94,0.00,CLR,,0.00,WeatherDisplay:10.37,2013-01-27 14:04:00,
2013-01-27 09:09:00,25.1,23.6,29.90,NE,38,0.0,0.0,94,0.00,CLR,,0.00,WeatherDisplay:10.37,2013-01-27 14:09:00,
2013-01-27 09:14:00,25.4,23.9,29.90,NE,38,0.0,0.0,94,0.00,CLR,,0.00,WeatherDisplay:10.37,2013-01-27 14:14:00,
2013-01-27 09:19:00,26.0,24.5,29.90,NE,38,3.5,3.5,94,0.00,CLR,,0.00,WeatherDisplay:10.37,2013-01-27 14:19:00,
2013-01-27 09:24:00,26.3,25.1,29.90,NE,38,3.5,3.5,95,0.00,CLR,,0.00,WeatherDisplay:10.37,2013-01-27 14:24:00,
2013-01-27 09:29:00,26.6,25.4,29.90,NE,44,0.0,0.0,95,0.00,CLR,,0.00,WeatherDisplay:10.37,2013-01-27 14:29:00,
2013-01-27 09:34:00,27.2,26.0,29.90,NE,34,1.1,1.1,95,0.00,CLR,,0.00,WeatherDisplay:10.37,2013-01-27 14:34:00,
2013-01-27 09:39:00,27.5,26.3,29.90,NE,35,0.0,0.0,95,0.00,CLR,,0.00,WeatherDisplay:10.37,2013-01-27 14:39:00,
2013-01-27 09:44:00,27.8,26.6,29.90,NE,35,0.0,0.0,95,0.00,CLR,,0.00,WeatherDisplay:10.37,2013-01-27 14:44:00,
2013-01-27 09:49:00,27.8,26.6,29.90,ESE,117,3.5,3.5,95,0.00,CLR,,0.00,WeatherDisplay:10.37,2013-01-27 14:49:00,
2013-01-27 09:54:00,27.8,26.6,29.90,ESE,117,0.0,0.0,95,0.00,CLR,,0.00,WeatherDisplay:10.37,2013-01-27 14:54:00,
2013-01-27 09:59:00,27.8,26.6,29.92,ESE,117,0.0,0.0,95,0.00,CLR,,0.00,WeatherDisplay:10.37,2013-01-27 14:59:00,
2013-01-27 10:04:00,27.9,26.7,29.92,ESE,117,2.3,2.3,95,0.00,CLR,,0.00,WeatherDisplay:10.37,2013-01-27 15:04:00,
2013-01-27 10:09:00,28.2,27.0,29.92,East,100,3.5,3.5,95,0.00,CLR,,0.00,WeatherDisplay:10.37,2013-01-27 15:09:00,
2013-01-27 10:14:00,28.2,27.0,29.92,East,99,3.5,3.5,95,0.00,CLR,,0.00,WeatherDisplay:10.37,2013-01-27 15:14:00,
2013-01-27 10:19:00,28.4,27.2,29.92,East,99,2.3,2.3,95,0.00,CLR,,0.00,WeatherDisplay:10.37,2013-01-27 15:19:00,
2013-01-27 10:24:00,28.8,27.5,29.92,SE,128,3.5,3.5,95,0.00,CLR,,0.00,WeatherDisplay:10.37,2013-01-27 15:24:00,
2013-01-27 10:29:00,29.1,27.8,29.92,NNE,28,2.3,2.3,95,0.00,CLR,,0.00,WeatherDisplay:10.37,2013-01-27 15:29:00,
2013-01-27 10:34:00,29.5,28.5,29.92,ESE,107,0.0,0.0,96,0.00,CLR,,0.00,WeatherDisplay:10.37,2013-01-27 15:34:00,
2013-01-27 10:39:00,29.7,28.4,29.92,SE,128,0.0,0.0,95,0.00,CLR,,0.00,WeatherDisplay:10.37,2013-01-27 15:39:00,
2013-01-27 10:44:00,30.1,28.8,29.92,ESE,117,0.0,0.0,95,0.00,CLR,,0.00,WeatherDisplay:10.37,2013-01-27 15:44:00,
2013-01-27 10:49:00,30.3,28.8,29.92,East,97,2.3,0.0,94,0.00,CLR,,0.00,WeatherDisplay:10.37,2013-01-27 15:49:00,
2013-01-27 10:54:00,30.4,28.4,29.92,East,95,3.5,3.5,92,0.00,CLR,,0.00,WeatherDisplay:10.37,2013-01-27 15:54:00,
2013-01-27 10:59:00,30.6,27.7,29.92,ESE,109,3.5,3.5,89,0.00,CLR,,0.00,WeatherDisplay:10.37,2013-01-27 15:59:00,
2013-01-27 11:04:00,31.0,27.3,29.92,ESE,109,2.3,2.3,86,0.00,CLR,,0.00,WeatherDisplay:10.37,2013-01-27 16:04:00,
2013-01-27 11:09:00,31.2,26.3,29.92,East,90,3.5,3.5,82,0.00,CLR,,0.00,WeatherDisplay:10.37,2013-01-27 16:09:00,
2013-01-27 11:14:00,31.6,26.1,29.92,ESE,103,2.3,2.3,80,0.00,CLR,,0.00,WeatherDisplay:10.37,2013-01-27 16:14:00,
2013-01-27 11:19:00,32.1,26.0,29.92,ESE,117,3.5,3.5,78,0.00,CLR,,0.00,WeatherDisplay:10.37,2013-01-27 16:19:00,
2013-01-27 11:24:00,32.2,25.2,29.92,SE,136,0.0,0.0,75,0.00,CLR,,0.00,WeatherDisplay:10.37,2013-01-27 16:24:00,
2013-01-27 11:29:00,32.7,25.3,29.91,ESE,117,4.6,4.6,74,0.00,CLR,,0.00,WeatherDisplay:10.37,2013-01-27 16:29:00,
2013-01-27 11:34:00,33.4,26.0,29.91,East,96,1.1,1.1,74,0.00,CLR,,0.00,WeatherDisplay:10.37,2013-01-27 16:34:00,
2013-01-27 11:39:00,33.5,24.8,29.91,SE,133,3.5,3.5,70,0.00,CLR,,0.00,WeatherDisplay:10.37,2013-01-27 16:39:00,
2013-01-27 11:44:00,33.7,24.6,29.91,ESE,117,3.5,3.5,69,0.00,CLR,,0.00,WeatherDisplay:10.37,2013-01-27 16:44:00,
2013-01-27 11:49:00,33.7,23.5,29.91,ESE,123,4.6,4.6,66,0.00,CLR,,0.00,WeatherDisplay:10.37,2013-01-27 16:49:00,
2013-01-27 11:54:00,33.7,23.9,29.91,East,90,6.0,6.0,67,0.00,CLR,,0.00,WeatherDisplay:10.37,2013-01-27 16:54:00,
2013-01-27 11:59:00,33.7,23.2,29.90,East,100,3.5,3.5,65,0.00,CLR,,0.00,WeatherDisplay:10.37,2013-01-27 16:59:00,
2013-01-27 12:04:00,33.7,23.9,29.90,ESE,104,3.5,3.5,67,0.00,CLR,,0.00,WeatherDisplay:10.37,2013-01-27 17:04:00,
2013-01-27 12:09:00,33.8,24.0,29.90,ESE,119,4.6,4.6,67,0.01,RA,,0.01,WeatherDisplay:10.37,2013-01-27 17:09:00,
2013-01-27 12:14:00,34.3,24.8,29.90,ESE,120,0.0,0.0,68,0.01,RA,,0.01,WeatherDisplay:10.37,2013-01-27 17:14:00,
2013-01-27 12:19:00,34.3,24.5,29.90,NE,41,3.5,3.5,67,0.01,,,0.01,WeatherDisplay:10.37,2013-01-27 17:19:00,
2013-01-27 12:24:00,34.6,24.8,29.90,ESE,104,4.6,4.6,67,0.01,CLR,,0.01,WeatherDisplay:10.37,2013-01-27 17:24:00,
2013-01-27 12:29:00,34.6,24.8,29.90,ESE,123,2.3,2.3,67,0.01,CLR,,0.01,WeatherDisplay:10.37,2013-01-27 17:29:00,
2013-01-27 12:34:00,34.1,24.3,29.90,ESE,120,1.1,0.0,67,0.01,CLR,,0.01,WeatherDisplay:10.37,2013-01-27 17:34:00,
2013-01-27 12:39:00,33.8,23.6,29.90,ESE,120,0.0,0.0,66,0.01,CLR,,0.01,WeatherDisplay:10.37,2013-01-27 17:39:00,
2013-01-27 12:44:00,34.0,24.5,29.88,ESE,120,2.3,2.3,68,0.01,CLR,,0.01,WeatherDisplay:10.37,2013-01-27 17:44:00,
2013-01-27 12:49:00,34.7,24.9,29.88,NE,38,6.9,6.9,67,0.01,CLR,,0.01,WeatherDisplay:10.37,2013-01-27 17:49:00,
2013-01-27 12:54:00,34.6,24.0,29.88,ESE,110,2.3,2.3,65,0.01,CLR,,0.01,WeatherDisplay:10.37,2013-01-27 17:54:00,
2013-01-27 12:59:00,34.7,24.9,29.88,ESE,110,0.0,0.0,67,0.01,CLR,,0.01,WeatherDisplay:10.37,2013-01-27 17:59:00,
2013-01-27 13:04:00,34.7,24.9,29.88,ESE,116,3.5,3.5,67,0.01,CLR,,0.01,WeatherDisplay:10.37,2013-01-27 18:04:00,
2013-01-27 13:09:00,34.7,24.1,29.88,ESE,116,0.0,0.0,65,0.00,CLR,,0.01,WeatherDisplay:10.37,2013-01-27 18:09:00,
2013-01-27 13:14:00,34.9,24.7,29.87,North,7,4.6,4.6,66,0.00,CLR,,0.01,WeatherDisplay:10.37,2013-01-27 18:14:00,
2013-01-27 13:19:00,35.2,24.6,29.87,North,359,4.6,4.6,65,0.00,CLR,,0.01,WeatherDisplay:10.37,2013-01-27 18:19:00,
2013-01-27 13:24:00,35.8,25.2,29.87,NE,34,1.1,1.1,65,0.00,CLR,,0.01,WeatherDisplay:10.37,2013-01-27 18:24:00,
2013-01-27 13:29:00,36.3,24.9,29.86,ESE,109,0.0,0.0,63,0.00,CLR,,0.01,WeatherDisplay:10.37,2013-01-27 18:29:00,
2013-01-27 13:34:00,36.6,24.4,29.86,SE,133,1.1,1.1,61,0.00,CLR,,0.01,WeatherDisplay:10.37,2013-01-27 18:34:00,
2013-01-27 13:39:00,36.5,24.7,29.86,SE,133,1.1,1.1,62,0.00,CLR,,0.01,WeatherDisplay:10.37,2013-01-27 18:39:00,
2013-01-27 13:44:00,36.0,24.2,29.85,ESE,110,0.0,0.0,62,0.00,CLR,,0.01,WeatherDisplay:10.37,2013-01-27 18:44:00,
2013-01-27 13:49:00,36.5,25.1,29.85,ESE,112,3.5,3.5,63,0.00,CLR,,0.01,WeatherDisplay:10.37,2013-01-27 18:49:00,
2013-01-27 13:54:00,36.5,24.7,29.85,SSW,208,5.8,5.8,62,0.00,CLR,,0.01,WeatherDisplay:10.37,2013-01-27 18:54:00,
2013-01-27 13:59:00,36.6,25.2,29.85,South,169,3.5,3.5,63,0.00,CLR,,0.01,WeatherDisplay:10.37,2013-01-27 18:59:00,
2013-01-27 14:04:00,36.8,24.6,29.85,SSE,164,2.3,2.3,61,0.00,CLR,,0.01,WeatherDisplay:10.37,2013-01-27 19:04:00,
2013-01-27 14:09:00,36.9,25.1,29.85,SSE,162,2.3,2.3,62,0.01,RA,,0.02,WeatherDisplay:10.37,2013-01-27 19:09:00,
2013-01-27 14:14:00,37.0,24.4,29.85,SW,230,3.5,3.5,60,0.01,RA,,0.02,WeatherDisplay:10.37,2013-01-27 19:14:00,
2013-01-27 14:19:00,37.2,24.6,29.85,NW,316,4.6,4.6,60,0.01,,,0.02,WeatherDisplay:10.37,2013-01-27 19:19:00,
2013-01-27 14:24:00,37.3,24.7,29.85,West,272,0.0,0.0,60,0.01,CLR,,0.02,WeatherDisplay:10.37,2013-01-27 19:24:00,
2013-01-27 14:29:00,37.5,24.9,29.86,ESE,119,2.3,2.3,60,0.01,CLR,,0.02,WeatherDisplay:10.37,2013-01-27 19:29:00,
2013-01-27 14:34:00,37.3,25.1,29.86,ESE,113,1.1,1.1,61,0.01,CLR,,0.02,WeatherDisplay:10.37,2013-01-27 19:34:00,
2013-01-27 14:39:00,37.3,25.1,29.86,SSW,192,2.3,2.3,61,0.01,CLR,,0.02,WeatherDisplay:10.37,2013-01-27 19:39:00,
2013-01-27 14:45:00,37.0,25.2,29.85,SSE,154,0.0,0.0,62,0.01,CLR,,0.02,WeatherDisplay:10.37,2013-01-27 19:45:00,
2013-01-27 14:50:00,37.0,24.8,29.85,SSE,152,0.0,0.0,61,0.01,CLR,,0.02,WeatherDisplay:10.37,2013-01-27 19:50:00,
2013-01-27 14:55:00,37.5,26.0,29.85,SSE,152,0.0,0.0,63,0.02,RA,,0.03,WeatherDisplay:10.37,2013-01-27 19:55:00,
2013-01-27 15:00:00,37.6,25.4,29.85,NE,47,0.0,0.0,61,0.02,RA,,0.03,WeatherDisplay:10.37,2013-01-27 20:00:00,
2013-01-27 15:05:00,37.8,25.1,29.85,North,353,2.3,2.3,60,0.02,CLR,,0.03,WeatherDisplay:10.37,2013-01-27 20:05:00,
2013-01-27 15:10:00,38.0,25.3,29.85,North,353,0.0,0.0,60,0.01,CLR,,0.03,WeatherDisplay:10.37,2013-01-27 20:10:00,
2013-01-27 15:15:00,38.8,26.1,29.84,NE,49,0.0,0.0,60,0.01,CLR,,0.03,WeatherDisplay:10.37,2013-01-27 20:15:00,
2013-01-27 15:20:00,39.1,26.4,29.84,NE,49,0.0,0.0,60,0.01,CLR,,0.03,WeatherDisplay:10.37,2013-01-27 20:20:00,
2013-01-27 15:25:00,39.1,25.6,29.84,NE,49,0.0,0.0,58,0.01,CLR,,0.03,WeatherDisplay:10.37,2013-01-27 20:25:00,
2013-01-27 15:30:00,39.2,26.1,29.84,NE,49,0.0,0.0,59,0.02,RA,,0.04,WeatherDisplay:10.37,2013-01-27 20:30:00,
2013-01-27 15:35:00,39.1,25.1,29.84,WSW,251,2.3,2.3,57,0.02,RA,,0.04,WeatherDisplay:10.37,2013-01-27 20:35:00,
2013-01-27 15:40:00,38.5,25.4,29.84,SE,145,0.0,0.0,59,0.02,CLR,,0.04,WeatherDisplay:10.37,2013-01-27 20:40:00,
2013-01-27 15:45:00,38.6,25.9,29.85,SE,145,0.0,0.0,60,0.02,CLR,,0.04,WeatherDisplay:10.37,2013-01-27 20:45:00,
2013-01-27 15:50:00,39.2,26.1,29.85,SE,145,0.0,0.0,59,0.02,CLR,,0.04,WeatherDisplay:10.37,2013-01-27 20:50:00,
2013-01-27 15:55:00,39.3,25.3,29.85,SW,224,2.3,2.3,57,0.01,CLR,,0.04,WeatherDisplay:10.37,2013-01-27 20:55:00,
2013-01-27 16:00:00,39.2,25.6,29.85,SW,224,0.0,0.0,58,0.01,CLR,,0.04,WeatherDisplay:10.37,2013-01-27 21:00:00,
2013-01-27 16:05:00,39.1,25.1,29.85,SW,224,0.0,0.0,57,0.01,CLR,,0.04,WeatherDisplay:10.37,2013-01-27 21:05:00,
2013-01-27 16:10:00,38.3,25.2,29.85,SW,224,0.0,0.0,59,0.01,CLR,,0.04,WeatherDisplay:10.37,2013-01-27 21:10:00,
2013-01-27 16:15:00,38.2,25.5,29.85,SW,224,0.0,0.0,60,0.02,RA,,0.05,WeatherDisplay:10.37,2013-01-27 21:15:00,
2013-01-27 16:20:00,38.2,25.5,29.85,SW,224,0.0,0.0,60,0.02,RA,,0.05,WeatherDisplay:10.37,2013-01-27 21:20:00,
2013-01-27 16:25:00,38.0,26.5,29.85,South,191,0.0,0.0,63,0.02,CLR,,0.05,WeatherDisplay:10.37,2013-01-27 21:25:00,
2013-01-27 16:30:00,37.6,26.1,29.85,SE,131,1.1,0.0,63,0.01,CLR,,0.05,WeatherDisplay:10.37,2013-01-27 21:30:00,
2013-01-27 16:35:00,37.5,26.0,29.85,SE,131,0.0,0.0,63,0.01,CLR,,0.05,WeatherDisplay:10.37,2013-01-27 21:35:00,
2013-01-27 16:40:00,37.3,26.6,29.85,SE,131,0.0,0.0,65,0.01,CLR,,0.05,WeatherDisplay:10.37,2013-01-27 21:40:00,
2013-01-27 16:45:00,37.2,26.1,29.84,ESE,107,2.3,2.3,64,0.01,CLR,,0.05,WeatherDisplay:10.37,2013-01-27 21:45:00,
2013-01-27 16:50:00,37.0,25.6,29.84,ESE,107,3.5,3.5,63,0.01,CLR,,0.05,WeatherDisplay:10.37,2013-01-27 21:50:00,
2013-01-27 16:55:00,37.0,25.9,29.84,ESE,107,0.0,0.0,64,0.01,CLR,,0.05,WeatherDisplay:10.37,2013-01-27 21:55:00,
2013-01-27 17:00:00,36.8,25.8,29.84,ESE,107,0.0,0.0,64,0.01,CLR,,0.05,WeatherDisplay:10.37,2013-01-27 22:00:00,
2013-01-27 17:05:00,36.6,25.9,29.84,ESE,107,0.0,0.0,65,0.01,CLR,,0.05,WeatherDisplay:10.37,2013-01-27 22:05:00,
2013-01-27 17:10:00,36.5,25.8,29.84,ESE,107,0.0,0.0,65,0.01,CLR,,0.05,WeatherDisplay:10.37,2013-01-27 22:10:00,
2013-01-27 17:15:00,36.3,26.0,29.85,ESE,107,0.0,0.0,66,0.00,CLR,,0.05,WeatherDisplay:10.37,2013-01-27 22:15:00,
2013-01-27 17:20:00,36.2,25.9,29.85,ESE,107,0.0,0.0,66,0.00,CLR,,0.05,WeatherDisplay:10.37,2013-01-27 22:20:00,
2013-01-27 17:25:00,36.0,25.7,29.85,ESE,107,0.0,0.0,66,0.00,CLR,,0.05,WeatherDisplay:10.37,2013-01-27 22:25:00,
2013-01-27 17:30:00,35.8,25.9,29.86,ESE,107,0.0,0.0,67,0.00,CLR,,0.05,WeatherDisplay:10.37,2013-01-27 22:30:00,
2013-01-27 17:35:00,35.6,25.7,29.86,ESE,107,0.0,0.0,67,0.00,CLR,,0.05,WeatherDisplay:10.37,2013-01-27 22:35:00,
2013-01-27 17:40:00,35.5,25.6,29.86,ESE,107,0.0,0.0,67,0.00,CLR,,0.05,WeatherDisplay:10.37,2013-01-27 22:40:00,
2013-01-27 17:45:00,35.5,26.0,29.87,ESE,107,0.0,0.0,68,0.00,CLR,,0.05,WeatherDisplay:10.37,2013-01-27 22:45:00,
2013-01-27 17:50:00,35.2,25.7,29.87,ESE,107,0.0,0.0,68,0.00,CLR,,0.05,WeatherDisplay:10.37,2013-01-27 22:50:00,
2013-01-27 17:55:00,35.0,25.9,29.87,ESE,107,0.0,0.0,69,0.00,CLR,,0.05,WeatherDisplay:10.37,2013-01-27 22:55:00,
2013-01-27 18:00:00,34.9,26.1,29.86,ESE,107,0.0,0.0,70,0.00,CLR,,0.05,WeatherDisplay:10.37,2013-01-27 23:00:00,
2013-01-27 18:05:00,34.7,25.9,29.86,ESE,107,0.0,0.0,70,0.00,CLR,,0.05,WeatherDisplay:10.37,2013-01-27 23:05:00,
2013-01-27 18:10:00,34.7,25.9,29.86,ESE,107,0.0,0.0,70,0.00,CLR,,0.05,WeatherDisplay:10.37,2013-01-27 23:10:00,
2013-01-27 18:15:00,34.7,25.9,29.87,ESE,107,0.0,0.0,70,0.00,CLR,,0.05,WeatherDisplay:10.37,2013-01-27 23:15:00,
2013-01-27 18:20:00,34.6,26.2,29.87,ESE,107,0.0,0.0,71,0.00,CLR,,0.05,WeatherDisplay:10.37,2013-01-27 23:20:00,
2013-01-27 18:25:00,34.4,25.6,29.87,ESE,107,0.0,0.0,70,0.00,CLR,,0.05,WeatherDisplay:10.37,2013-01-27 23:25:00,
2013-01-27 18:30:00,34.4,26.0,29.86,ESE,107,0.0,0.0,71,0.00,CLR,,0.05,WeatherDisplay:10.37,2013-01-27 23:30:00,
2013-01-27 18:35:00,34.6,26.2,29.86,ESE,107,0.0,0.0,71,0.00,CLR,,0.05,WeatherDisplay:10.37,2013-01-27 23:35:00,
2013-01-27 18:40:00,34.6,26.2,29.86,ESE,107,0.0,0.0,71,0.00,CLR,,0.05,WeatherDisplay:10.37,2013-01-27 23:40:00,
2013-01-27 18:45:00,34.4,26.3,29.86,ESE,107,0.0,0.0,72,0.00,CLR,,0.05,WeatherDisplay:10.37,2013-01-27 23:45:00,
2013-01-27 18:50:00,34.3,26.2,29.86,ESE,107,0.0,0.0,72,0.00,CLR,,0.05,WeatherDisplay:10.37,2013-01-27 23:50:00,
2013-01-27 18:55:00,34.3,26.2,29.86,ESE,107,0.0,0.0,72,0.00,CLR,,0.05,WeatherDisplay:10.37,2013-01-27 23:55:00,
2013-01-27 19:00:00,34.3,26.2,29.85,ESE,107,0.0,0.0,72,0.00,CLR,,0.05,WeatherDisplay:10.37,2013-01-28 00:00:00,
2013-01-27 19:05:00,34.3,25.9,29.85,ESE,107,0.0,0.0,71,0.00,CLR,,0.05,WeatherDisplay:10.37,2013-01-28 00:05:00,
2013-01-27 19:10:00,34.4,26.3,29.85,ESE,107,0.0,0.0,72,0.00,CLR,,0.05,WeatherDisplay:10.37,2013-01-28 00:10:00,
2013-01-27 19:15:00,34.3,26.2,29.86,ESE,107,0.0,0.0,72,0.00,CLR,,0.05,WeatherDisplay:10.37,2013-01-28 00:15:00,
2013-01-27 19:20:00,34.3,26.2,29.86,ESE,107,0.0,0.0,72,0.00,CLR,,0.05,WeatherDisplay:10.37,2013-01-28 00:20:00,
2013-01-27 19:25:00,34.1,26.0,29.86,ESE,107,0.0,0.0,72,0.00,CLR,,0.05,WeatherDisplay:10.37,2013-01-28 00:25:00,
2013-01-27 19:30:00,34.0,25.9,29.87,ESE,107,0.0,0.0,72,0.00,CLR,,0.05,WeatherDisplay:10.37,2013-01-28 00:30:00,
2013-01-27 19:35:00,33.8,25.7,29.87,ESE,107,0.0,0.0,72,0.00,CLR,,0.05,WeatherDisplay:10.37,2013-01-28 00:35:00,
2013-01-27 19:40:00,33.7,25.6,29.86,ESE,107,0.0,0.0,72,0.00,CLR,,0.05,WeatherDisplay:10.37,2013-01-28 00:40:00,
2013-01-27 19:45:00,33.4,25.7,29.86,ESE,107,0.0,0.0,73,0.00,CLR,,0.05,WeatherDisplay:10.37,2013-01-28 00:45:00,
2013-01-27 19:50:00,32.9,25.5,29.86,ESE,107,0.0,0.0,74,0.00,CLR,,0.05,WeatherDisplay:10.37,2013-01-28 00:50:00,
2013-01-27 19:55:00,32.5,25.5,29.85,ESE,107,0.0,0.0,75,0.00,CLR,,0.05,WeatherDisplay:10.37,2013-01-28 00:55:00,
2013-01-27 20:00:00,32.2,25.5,29.85,ESE,107,0.0,0.0,76,0.00,CLR,,0.05,WeatherDisplay:10.37,2013-01-28 01:00:00,
2013-01-27 20:05:00,31.9,25.8,29.85,ESE,107,0.0,0.0,78,0.00,CLR,,0.05,WeatherDisplay:10.37,2013-01-28 01:05:00,
2013-01-27 20:10:00,31.6,25.5,29.84,ESE,107,0.0,0.0,78,0.00,CLR,,0.05,WeatherDisplay:10.37,2013-01-28 01:10:00,
2013-01-27 20:15:00,31.3,25.5,29.84,ESE,107,0.0,0.0,79,0.00,CLR,,0.05,WeatherDisplay:10.37,2013-01-28 01:15:00,
2013-01-27 20:20:00,31.5,25.4,29.84,ESE,107,0.0,0.0,78,0.00,CLR,,0.05,WeatherDisplay:10.37,2013-01-28 01:20:00,
2013-01-27 20:25:00,31.6,25.5,29.84,ESE,107,0.0,0.0,78,0.00,CLR,,0.05,WeatherDisplay:10.37,2013-01-28 01:25:00,
2013-01-27 20:30:00,31.8,25.4,29.84,ESE,107,0.0,0.0,77,0.00,CLR,,0.05,WeatherDisplay:10.37,2013-01-28 01:30:00,
2013-01-27 20:35:00,31.8,25.4,29.84,ESE,107,0.0,0.0,77,0.00,CLR,,0.05,WeatherDisplay:10.37,2013-01-28 01:35:00,
2013-01-27 20:40:00,31.8,25.1,29.85,ESE,107,0.0,0.0,76,0.00,CLR,,0.05,WeatherDisplay:10.37,2013-01-28 01:40:00,
2013-01-27 20:45:00,31.9,25.2,29.85,ESE,107,0.0,0.0,76,0.00,CLR,,0.05,WeatherDisplay:10.37,2013-01-28 01:45:00,
2013-01-27 20:50:00,31.9,25.2,29.85,ESE,107,0.0,0.0,76,0.00,CLR,,0.05,WeatherDisplay:10.37,2013-01-28 01:50:00,
2013-01-27 20:55:00,31.9,25.2,29.86,ESE,107,0.0,0.0,76,0.00,CLR,,0.05,WeatherDisplay:10.37,2013-01-28 01:55:00,
2013-01-27 21:00:00,31.9,25.2,29.86,ESE,107,0.0,0.0,76,0.00,CLR,,0.05,WeatherDisplay:10.37,2013-01-28 02:00:00,
2013-01-27 21:05:00,31.6,24.9,29.86,ESE,107,0.0,0.0,76,0.00,CLR,,0.05,WeatherDisplay:10.37,2013-01-28 02:05:00,
2013-01-27 21:10:00,31.0,24.9,29.85,ESE,107,0.0,0.0,78,0.00,CLR,,0.05,WeatherDisplay:10.37,2013-01-28 02:10:00,
2013-01-27 21:15:00,30.6,24.9,29.85,ESE,107,0.0,0.0,79,0.00,CLR,,0.05,WeatherDisplay:10.37,2013-01-28 02:15:00,
2013-01-27 21:20:00,30.3,24.9,29.85,ESE,107,0.0,0.0,80,0.00,CLR,,0.05,WeatherDisplay:10.37,2013-01-28 02:20:00,
2013-01-27 21:25:00,29.8,24.7,29.85,ESE,107,0.0,0.0,81,0.00,CLR,,0.05,WeatherDisplay:10.37,2013-01-28 02:25:00,
2013-01-27 21:30:00,30.0,25.2,29.85,ESE,107,0.0,0.0,82,0.00,CLR,,0.05,WeatherDisplay:10.37,2013-01-28 02:30:00,
2013-01-27 21:35:00,30.3,25.5,29.85,ESE,107,0.0,0.0,82,0.00,CLR,,0.05,WeatherDisplay:10.37,2013-01-28 02:35:00,
2013-01-27 21:40:00,30.7,25.3,29.84,ESE,107,1.1,0.0,80,0.00,CLR,,0.05,WeatherDisplay:10.37,2013-01-28 02:40:00,
2013-01-27 21:45:00,31.3,25.5,29.84,SE,124,0.0,0.0,79,0.00,CLR,,0.05,WeatherDisplay:10.37,2013-01-28 02:45:00,
2013-01-27 21:50:00,31.3,25.2,29.84,SE,124,0.0,0.0,78,0.00,CLR,,0.05,WeatherDisplay:10.37,2013-01-28 02:50:00,
2013-01-27 21:55:00,31.5,25.1,29.84,SE,124,0.0,0.0,77,0.00,CLR,,0.05,WeatherDisplay:10.37,2013-01-28 02:55:00,
2013-01-27 22:00:00,31.5,25.1,29.84,SE,124,0.0,0.0,77,0.00,CLR,,0.05,WeatherDisplay:10.37,2013-01-28 03:00:00,
2013-01-27 22:05:00,31.5,25.1,29.84,SE,124,0.0,0.0,77,0.00,CLR,,0.05,WeatherDisplay:10.37,2013-01-28 03:05:00,
2013-01-27 22:10:00,31.8,25.1,29.84,SE,124,0.0,0.0,76,0.00,CLR,,0.05,WeatherDisplay:10.37,2013-01-28 03:10:00,
2013-01-27 22:15:00,31.8,25.1,29.84,SE,124,0.0,0.0,76,0.00,CLR,,0.05,WeatherDisplay:10.37,2013-01-28 03:15:00,
2013-01-27 22:20:00,31.8,25.1,29.84,SE,124,0.0,0.0,76,0.00,CLR,,0.05,WeatherDisplay:10.37,2013-01-28 03:20:00,
2013-01-27 22:25:00,31.9,24.9,29.85,SE,124,0.0,0.0,75,0.00,CLR,,0.05,WeatherDisplay:10.37,2013-01-28 03:25:00,
2013-01-27 22:30:00,31.9,24.9,29.85,SE,126,0.0,0.0,75,0.00,CLR,,0.05,WeatherDisplay:10.37,2013-01-28 03:30:00,
2013-01-27 22:35:00,31.9,24.9,29.85,SE,124,0.0,0.0,75,0.00,CLR,,0.05,WeatherDisplay:10.37,2013-01-28 03:35:00,
2013-01-27 22:40:00,31.6,24.9,29.85,SE,126,0.0,0.0,76,0.00,CLR,,0.05,WeatherDisplay:10.37,2013-01-28 03:40:00,
2013-01-27 22:45:00,31.6,24.9,29.85,SE,124,0.0,0.0,76,0.00,CLR,,0.05,WeatherDisplay:10.37,2013-01-28 03:45:00,
2013-01-27 22:50:00,31.5,24.8,29.85,SE,126,0.0,0.0,76,0.00,CLR,,0.05,WeatherDisplay:10.37,2013-01-28 03:50:00,
2013-01-27 22:55:00,31.5,24.8,29.84,SE,126,0.0,0.0,76,0.00,CLR,,0.05,WeatherDisplay:10.37,2013-01-28 03:55:00,
2013-01-27 23:00:00,31.3,24.6,29.84,SE,124,0.0,0.0,76,0.00,CLR,,0.05,WeatherDisplay:10.37,2013-01-28 04:00:00,
2013-01-27 23:05:00,31.5,24.8,29.84,SE,124,0.0,0.0,76,0.00,CLR,,0.05,WeatherDisplay:10.37,2013-01-28 04:05:00,
2013-01-27 23:10:00,31.3,24.6,29.84,SE,124,0.0,0.0,76,0.00,CLR,,0.05,WeatherDisplay:10.37,2013-01-28 04:10:00,
2013-01-27 23:15:00,31.0,24.6,29.84,SE,124,0.0,0.0,77,0.00,CLR,,0.05,WeatherDisplay:10.37,2013-01-28 04:15:00,
2013-01-27 23:20:00,30.9,24.5,29.84,SE,124,0.0,0.0,77,0.00,CLR,,0.05,WeatherDisplay:10.37,2013-01-28 04:20:00,
2013-01-27 23:25:00,30.7,24.7,29.84,SE,124,0.0,0.0,78,0.00,CLR,,0.05,WeatherDisplay:10.37,2013-01-28 04:25:00,
2013-01-27 23:30:00,30.6,24.9,29.84,SE,124,0.0,0.0,79,0.00,CLR,,0.05,WeatherDisplay:10.37,2013-01-28 04:30:00,
2013-01-27 23:35:00,30.4,24.7,29.84,SE,126,0.0,0.0,79,0.00,CLR,,0.05,WeatherDisplay:10.37,2013-01-28 04:35:00,
2013-01-27 23:40:00,30.1,24.4,29.84,SE,124,0.0,0.0,79,0.00,CLR,,0.05,WeatherDisplay:10.37,2013-01-28 04:40:00,
2013-01-27 23:45:00,30.0,24.3,29.84,SE,126,0.0,0.0,79,0.00,CLR,,0.05,WeatherDisplay:10.37,2013-01-28 04:45:00,
2013-01-27 23:50:00,29.8,24.4,29.84,SE,124,0.0,0.0,80,0.00,CLR,,0.05,WeatherDisplay:10.37,2013-01-28 04:50:00,
2013-01-27 23:55:00,30.0,24.6,29.83,SE,124,0.0,0.0,80,0.00,CLR,,0.05,WeatherDisplay:10.37,2013-01-28 04:55:00,